Jinzhou, China
Current Conditions -  °F | °C
As of 9:00 AM on Tuesday 21 Oct 2014 (Local Time) from ZYTL Reporting Station
Broken Clouds Broken Clouds  
Wind Chill: 43°   Ceiling: 3300
Heat Index: 48°   Visibility: 4mi
Dew Point: 23°   Wind: 13mph
Humidity: 37%   Direction: 350°N
Pressure: 30.18"   Gusts: NA
Location:  39.1°N, 121.72°E
Report Text: ZYTL 210100Z 35006MPS 300V050 6000 BKN033 09/M05 Q1022 NOSIG
Loading
Personal Weather Stations






























Interactive Weather Map
Tropical Storm Tracking
New forecast layout! Learn more

10-Day Weather Forecast

Advertisements
Track Severe Weather on mobile